createdAt,value
2022-10-23T00:02:22.487Z,8.95
2022-10-23T00:04:53.196Z,8.25
2022-10-23T00:07:21.220Z,7.70
2022-10-23T00:09:49.204Z,7.20
2022-10-23T00:12:17.124Z,7.07
2022-10-23T00:14:45.117Z,8.18
2022-10-23T00:17:13.011Z,8.20
2022-10-23T00:19:40.948Z,7.90
2022-10-23T00:22:11.177Z,7.90
2022-10-23T00:24:39.083Z,7.68
2022-10-23T00:27:06.970Z,7.70
2022-10-23T00:29:34.902Z,7.50
2022-10-23T00:32:02.824Z,7.90
2022-10-23T00:34:30.766Z,7.00
2022-10-23T00:36:58.658Z,7.80
2022-10-23T00:39:28.090Z,7.40
2022-10-23T00:41:56.365Z,7.40
2022-10-23T00:45:11.954Z,8.13
2022-10-23T00:47:40.253Z,7.88
2022-10-23T00:50:08.797Z,7.73
2022-10-23T00:52:41.857Z,7.97
2022-10-23T00:55:11.867Z,7.57
2022-10-23T00:57:43.339Z,7.97
2022-10-23T01:00:17.482Z,7.28
2022-10-23T01:02:45.830Z,8.75
2022-10-23T01:05:14.262Z,8.80
2022-10-23T01:07:51.405Z,8.00
2022-10-23T01:10:29.539Z,7.93
2022-10-23T01:13:05.472Z,7.80
2022-10-23T01:15:41.433Z,8.30
2022-10-23T01:18:16.980Z,7.93
2022-10-23T01:20:47.732Z,7.63
2022-10-23T01:23:41.079Z,8.00
2022-10-23T01:26:41.737Z,8.50
2022-10-23T01:29:19.780Z,9.90
2022-10-23T01:31:52.013Z,9.02
2022-10-23T01:34:24.336Z,10.50
2022-10-23T01:36:53.683Z,9.25
2022-10-23T01:39:27.404Z,9.90
2022-10-23T01:41:58.082Z,9.45
2022-10-23T01:44:32.409Z,9.90
2022-10-23T01:47:01.774Z,9.45
2022-10-23T01:49:30.530Z,9.23
2022-10-23T01:52:03.267Z,8.70
2022-10-23T01:54:35.249Z,9.27
2022-10-23T01:57:04.493Z,9.20
2022-10-23T01:59:38.201Z,8.80
2022-10-23T02:02:07.538Z,9.20
2022-10-23T02:04:39.390Z,9.05
2022-10-23T02:07:07.569Z,8.30
2022-10-23T02:09:35.938Z,8.40
2022-10-23T02:12:08.740Z,8.00
2022-10-23T02:14:45.868Z,9.00
2022-10-23T02:17:21.208Z,8.82
2022-10-23T02:19:57.160Z,8.60
2022-10-23T02:22:28.897Z,9.10
2022-10-23T02:25:04.827Z,7.82
2022-10-23T02:27:38.183Z,8.77
2022-10-23T02:30:09.800Z,7.63
2022-10-23T02:32:42.406Z,8.83
2022-10-23T02:35:11.985Z,8.30
2022-10-23T02:37:40.329Z,8.20
2022-10-23T02:40:10.981Z,7.97
2022-10-23T02:42:44.757Z,8.07
2022-10-23T02:45:22.760Z,8.70
2022-10-23T02:47:56.250Z,8.30
2022-10-23T02:50:32.416Z,7.93
2022-10-23T02:53:07.010Z,8.02
2022-10-23T02:55:45.628Z,7.70
2022-10-23T02:58:21.373Z,7.43
2022-10-23T03:00:54.845Z,8.30
2022-10-23T03:03:27.970Z,7.90
2022-10-23T03:05:56.329Z,7.17
2022-10-23T03:08:25.112Z,7.40
2022-10-23T03:10:53.130Z,7.90
2022-10-23T03:13:21.046Z,7.50
2022-10-23T03:15:50.347Z,7.38
2022-10-23T03:18:18.268Z,7.40
2022-10-23T03:20:46.200Z,8.07
2022-10-23T03:23:14.791Z,6.93
2022-10-23T03:25:42.731Z,8.25
2022-10-23T03:28:10.627Z,8.00
2022-10-23T03:30:38.567Z,7.43
2022-10-23T03:33:07.872Z,7.40
2022-10-23T03:35:35.957Z,7.15
2022-10-23T03:38:03.993Z,7.05
2022-10-23T03:40:32.078Z,7.22
2022-10-23T03:43:00.022Z,7.47
2022-10-23T03:45:28.292Z,7.70
2022-10-23T03:47:56.224Z,7.35
2022-10-23T03:50:25.525Z,8.00
2022-10-23T03:52:53.489Z,7.60
2022-10-23T03:55:21.390Z,7.53
2022-10-23T03:57:49.303Z,7.15
2022-10-23T04:00:17.598Z,7.07
2022-10-23T04:02:46.073Z,7.20
2022-10-23T04:05:14.675Z,7.55
2022-10-23T04:07:44.046Z,7.13
2022-10-23T04:10:12.047Z,7.10
2022-10-23T04:12:40.003Z,7.30
2022-10-23T04:15:08.822Z,7.80
2022-10-23T04:17:36.732Z,7.70
2022-10-23T04:20:05.207Z,7.00
2022-10-23T04:22:33.117Z,7.27
2022-10-23T04:25:02.777Z,7.35
2022-10-23T04:27:30.899Z,7.47
2022-10-23T04:29:59.230Z,7.40
2022-10-23T04:32:27.552Z,7.00
2022-10-23T04:34:55.497Z,6.90
2022-10-23T04:37:23.373Z,7.40
2022-10-23T04:39:51.258Z,7.07
2022-10-23T04:42:20.818Z,7.30
2022-10-23T04:44:48.835Z,6.60
2022-10-23T04:47:16.785Z,7.30
2022-10-23T04:49:44.698Z,7.68
2022-10-23T04:52:12.641Z,6.50
2022-10-23T04:54:41.865Z,7.10
2022-10-23T04:57:09.959Z,7.22
2022-10-23T04:59:39.262Z,6.90
2022-10-23T05:02:07.189Z,6.60
2022-10-23T05:04:35.079Z,7.05
2022-10-23T05:07:03.176Z,6.70
2022-10-23T05:09:31.090Z,6.73
2022-10-23T05:11:58.981Z,5.95
2022-10-23T05:14:26.983Z,7.38
2022-10-23T05:17:00.762Z,6.35
2022-10-23T05:19:31.290Z,6.40
2022-10-23T05:21:59.537Z,6.10
2022-10-23T05:24:27.559Z,5.72
2022-10-23T05:26:55.549Z,6.15
2022-10-23T05:29:23.715Z,6.63
2022-10-23T05:32:12.632Z,5.83
2022-10-23T05:34:42.186Z,6.05
2022-10-23T05:37:13.459Z,6.38
2022-10-23T05:39:41.458Z,6.20
2022-10-23T05:42:09.331Z,5.90
2022-10-23T05:44:37.773Z,6.55
2022-10-23T05:47:05.786Z,6.30
2022-10-23T05:49:35.202Z,6.20
2022-10-23T05:52:03.199Z,6.60
2022-10-23T05:54:31.123Z,6.40
2022-10-23T05:56:59.039Z,6.68
2022-10-23T05:59:26.978Z,6.47
2022-10-23T06:01:55.026Z,6.38
2022-10-23T06:04:23.019Z,6.80
2022-10-23T06:06:52.319Z,6.57
2022-10-23T06:09:20.289Z,6.47
2022-10-23T06:11:48.403Z,6.70
2022-10-23T06:14:16.386Z,5.55
2022-10-23T06:16:44.430Z,6.28
2022-10-23T06:19:12.646Z,6.35
2022-10-23T06:21:41.156Z,6.78
2022-10-23T06:24:10.569Z,6.70
2022-10-23T06:26:38.450Z,6.65
2022-10-23T06:29:06.826Z,6.40
2022-10-23T06:31:35.106Z,6.13
2022-10-23T06:34:04.079Z,6.93
2022-10-23T06:36:32.117Z,6.78
2022-10-23T06:41:34.254Z,7.28
2022-10-23T06:44:02.606Z,6.80
2022-10-23T06:46:33.018Z,6.67
2022-10-23T06:49:00.902Z,7.30
2022-10-23T06:51:29.778Z,6.70
2022-10-23T06:53:58.647Z,6.80
2022-10-23T06:56:29.201Z,6.70
2022-10-23T06:58:58.719Z,6.43
2022-10-23T07:01:26.809Z,6.68
2022-10-23T07:03:54.853Z,7.10
2022-10-23T07:06:22.749Z,6.65
2022-10-23T07:08:50.716Z,6.53
2022-10-23T07:11:19.181Z,5.90
2022-10-23T07:13:47.453Z,6.60
2022-10-23T07:16:18.973Z,6.40
2022-10-23T07:18:48.153Z,6.97
2022-10-23T07:21:16.516Z,5.80
2022-10-23T07:23:44.420Z,7.10
2022-10-23T07:26:15.468Z,7.30
2022-10-23T07:28:45.129Z,7.03
2022-10-23T07:31:14.005Z,7.30
2022-10-23T07:33:43.270Z,6.90
2022-10-23T07:36:11.534Z,7.32
2022-10-23T07:38:39.738Z,7.10
2022-10-23T07:41:10.235Z,6.95
2022-10-23T07:43:40.715Z,6.80
2022-10-23T07:46:09.847Z,7.00
2022-10-23T07:48:38.185Z,6.77
2022-10-23T07:51:10.743Z,6.60
2022-10-23T07:53:39.504Z,6.65
2022-10-23T07:56:14.299Z,6.30
2022-10-23T07:58:42.267Z,6.13
2022-10-23T08:01:17.750Z,6.25
2022-10-23T08:03:45.846Z,5.80
2022-10-23T08:06:15.178Z,6.30
2022-10-23T08:08:43.093Z,6.00
2022-10-23T08:11:13.796Z,6.10
2022-10-23T08:13:41.842Z,5.55
2022-10-23T08:16:09.851Z,6.40
2022-10-23T08:18:37.815Z,6.30
2022-10-23T08:21:06.072Z,6.32
2022-10-23T08:23:35.394Z,6.57
2022-10-23T08:26:05.352Z,6.10
2022-10-23T08:28:33.736Z,6.32
2022-10-23T08:31:08.689Z,5.90
2022-10-23T08:33:36.748Z,5.70
2022-10-23T08:36:05.011Z,5.68
2022-10-23T08:38:33.786Z,6.90
2022-10-23T08:41:03.104Z,6.30
2022-10-23T08:43:37.129Z,6.13
2022-10-23T08:46:09.501Z,6.23
2022-10-23T08:48:44.309Z,6.40
2022-10-23T08:51:18.877Z,6.00
2022-10-23T08:53:52.879Z,5.90
2022-10-23T08:56:28.396Z,5.70
2022-10-23T08:59:05.288Z,5.72
2022-10-23T09:01:40.130Z,6.30
2022-10-23T09:04:10.866Z,6.22
2022-10-23T09:06:44.132Z,5.65
2022-10-23T09:09:39.606Z,5.82
2022-10-23T09:12:12.640Z,5.90
2022-10-23T09:15:08.322Z,5.82
2022-10-23T09:17:39.918Z,5.25
2022-10-23T09:20:17.369Z,6.40
2022-10-23T09:22:46.198Z,6.28
2022-10-23T09:25:20.314Z,5.53
2022-10-23T09:27:54.772Z,5.80
2022-10-23T09:30:32.208Z,5.97
2022-10-23T09:33:00.363Z,5.28
2022-10-23T09:35:30.235Z,5.70
2022-10-23T09:37:58.496Z,5.80
2022-10-23T09:40:33.327Z,5.70
2022-10-23T09:43:05.650Z,5.90
2022-10-23T09:45:35.465Z,5.60
2022-10-23T09:48:21.458Z,5.50
2022-10-23T09:50:51.570Z,5.40
2022-10-23T09:53:27.721Z,6.05
2022-10-23T09:55:57.998Z,5.78
2022-10-23T09:58:33.607Z,5.55
2022-10-23T10:01:01.964Z,5.78
2022-10-23T10:03:30.105Z,5.65
2022-10-23T10:05:59.978Z,6.00
2022-10-23T10:08:38.763Z,5.03
2022-10-23T10:11:13.457Z,5.70
2022-10-23T10:14:28.992Z,5.70
2022-10-23T10:17:02.871Z,5.85
2022-10-23T10:19:48.420Z,5.45
2022-10-23T10:22:29.148Z,6.10
2022-10-23T10:25:03.903Z,6.60
2022-10-23T10:27:46.433Z,6.13
2022-10-23T10:30:19.185Z,6.10
2022-10-23T10:32:55.558Z,5.80
2022-10-23T10:35:41.390Z,6.75
2022-10-23T10:38:24.196Z,6.70
2022-10-23T10:41:15.393Z,6.68
2022-10-23T10:43:52.577Z,6.40
2022-10-23T10:46:27.761Z,6.47
2022-10-23T10:49:02.761Z,6.32
2022-10-23T10:51:33.929Z,6.30
2022-10-23T10:54:30.668Z,5.97
2022-10-23T10:57:01.205Z,6.83
2022-10-23T10:59:31.980Z,6.40
2022-10-23T11:02:06.867Z,6.10
2022-10-23T11:04:41.967Z,6.60
2022-10-23T11:07:13.656Z,5.90
2022-10-23T11:09:42.951Z,6.50
2022-10-23T11:12:17.763Z,6.40
2022-10-23T11:14:46.652Z,6.25
2022-10-23T11:17:19.709Z,6.75
2022-10-23T11:19:55.895Z,6.33
2022-10-23T11:22:28.853Z,6.20
2022-10-23T11:25:09.681Z,5.85
2022-10-23T11:27:58.177Z,6.50
2022-10-23T11:30:36.801Z,6.20
2022-10-23T11:33:39.315Z,5.68
2022-10-23T11:36:17.429Z,5.70
2022-10-23T11:38:47.361Z,6.50
2022-10-23T11:41:25.363Z,5.30
2022-10-23T11:43:57.218Z,6.27
2022-10-23T11:46:36.238Z,5.70
2022-10-23T11:49:06.600Z,5.68
2022-10-23T11:51:37.615Z,5.93
2022-10-23T11:54:22.386Z,5.25
2022-10-23T11:56:55.945Z,6.00
2022-10-23T11:59:28.867Z,6.07
2022-10-23T12:01:58.548Z,5.78
2022-10-23T12:04:31.691Z,5.80
2022-10-23T12:07:02.517Z,5.63
2022-10-23T12:09:38.095Z,5.45
2022-10-23T12:12:31.454Z,5.20
2022-10-23T12:15:19.808Z,6.00
2022-10-23T12:17:49.636Z,5.88
2022-10-23T12:20:28.073Z,5.25
2022-10-23T12:23:10.782Z,5.63
2022-10-23T12:25:52.585Z,5.40
2022-10-23T12:28:30.719Z,5.30
2022-10-23T12:31:10.151Z,5.43
2022-10-23T12:33:47.533Z,5.20
2022-10-23T12:36:26.236Z,5.90
2022-10-23T12:38:58.567Z,5.50
2022-10-23T12:41:28.250Z,4.80
2022-10-23T12:43:59.447Z,5.00
2022-10-23T12:46:35.687Z,4.65
2022-10-23T12:49:12.883Z,5.10
2022-10-23T12:51:40.860Z,5.00
2022-10-23T12:54:17.823Z,4.57
2022-10-23T12:56:46.145Z,4.40
2022-10-23T12:59:17.348Z,4.93
2022-10-23T13:01:49.110Z,5.00
2022-10-23T13:04:27.432Z,4.90
2022-10-23T13:06:56.987Z,4.45
2022-10-23T13:09:31.223Z,5.00
2022-10-23T13:12:00.162Z,4.00
2022-10-23T13:14:39.462Z,4.00
2022-10-23T13:17:12.448Z,4.68
2022-10-23T13:19:40.436Z,4.30
2022-10-23T13:22:19.843Z,4.35
2022-10-23T13:24:49.405Z,3.85
2022-10-23T13:27:27.334Z,4.50
2022-10-23T13:29:55.284Z,4.45
2022-10-23T13:32:24.974Z,4.25
2022-10-23T13:35:04.049Z,4.07
2022-10-23T13:37:38.476Z,4.47
2022-10-23T13:40:23.233Z,4.10
2022-10-23T13:42:52.186Z,4.40
2022-10-23T13:45:22.309Z,4.50
2022-10-23T13:47:50.537Z,4.25
2022-10-23T13:50:18.836Z,4.10
2022-10-23T13:52:46.846Z,3.93
2022-10-23T13:55:21.588Z,4.60
2022-10-23T13:57:49.574Z,4.20
2022-10-23T14:00:18.477Z,3.83
2022-10-23T14:02:46.669Z,4.20
2022-10-23T14:05:14.686Z,4.72
2022-10-23T14:07:43.031Z,4.60
2022-10-23T14:10:11.224Z,4.68
2022-10-23T14:12:44.516Z,4.77
2022-10-23T14:15:13.322Z,4.05
2022-10-23T14:17:41.226Z,4.00
2022-10-23T14:20:10.522Z,4.00
2022-10-23T14:22:38.611Z,3.92
2022-10-23T14:25:07.112Z,4.28
2022-10-23T14:27:35.095Z,3.90
2022-10-23T14:30:05.078Z,3.30
2022-10-23T14:32:33.032Z,3.30
2022-10-23T14:35:03.729Z,3.40
2022-10-23T14:37:32.043Z,2.78
2022-10-23T14:40:00.466Z,2.92
2022-10-23T14:42:34.019Z,3.08
2022-10-23T14:45:02.709Z,3.22
2022-10-23T14:47:32.951Z,3.40
2022-10-23T14:50:00.870Z,3.20
2022-10-23T14:52:28.914Z,3.10
2022-10-23T14:54:56.873Z,2.72
2022-10-23T14:57:24.821Z,2.70
2022-10-23T14:59:52.779Z,2.55
2022-10-23T15:02:20.701Z,3.40
2022-10-23T15:04:50.042Z,2.85
2022-10-23T15:07:18.869Z,2.97
2022-10-23T15:09:46.813Z,3.20
2022-10-23T15:12:14.898Z,3.25
2022-10-23T15:14:42.823Z,3.23
2022-10-23T15:17:15.399Z,2.80
2022-10-23T15:19:43.762Z,3.30
2022-10-23T15:22:13.044Z,3.50
2022-10-23T15:24:40.988Z,3.10
2022-10-23T15:29:37.812Z,3.30
2022-10-23T15:32:07.691Z,3.00
2022-10-23T15:34:36.290Z,3.60
2022-10-23T15:37:04.735Z,3.13
2022-10-23T15:39:35.513Z,3.33
2022-10-23T15:42:06.179Z,3.50
2022-10-23T15:44:34.716Z,3.30
2022-10-23T15:47:02.746Z,2.90
2022-10-23T15:49:31.117Z,3.30
2022-10-23T15:51:59.208Z,3.60
2022-10-23T15:54:30.463Z,3.20
2022-10-23T15:57:02.693Z,3.28
2022-10-23T15:59:32.200Z,3.80
2022-10-23T16:02:00.356Z,3.25
2022-10-23T16:04:29.417Z,3.58
2022-10-23T16:06:57.354Z,3.75
2022-10-23T16:09:25.249Z,4.30
2022-10-23T16:11:53.169Z,5.00
2022-10-23T16:14:22.524Z,4.50
2022-10-23T16:16:50.469Z,4.30
2022-10-23T16:19:18.683Z,4.30
2022-10-23T16:21:46.683Z,4.10
2022-10-23T16:24:14.613Z,3.70
2022-10-23T16:26:42.538Z,3.80
2022-10-23T16:29:12.339Z,4.00
2022-10-23T16:31:41.654Z,4.03
2022-10-23T16:34:09.606Z,3.42
2022-10-23T16:36:38.968Z,3.28
2022-10-23T16:39:07.381Z,3.28
2022-10-23T16:41:35.364Z,3.50
2022-10-23T16:44:03.294Z,3.25
2022-10-23T16:46:31.590Z,3.10
2022-10-23T16:49:02.865Z,3.42
2022-10-23T16:51:31.529Z,3.50
2022-10-23T16:54:00.372Z,3.42
2022-10-23T16:56:31.666Z,3.20
2022-10-23T16:59:00.374Z,3.20
2022-10-23T17:01:30.230Z,3.33
2022-10-23T17:04:00.202Z,3.13
2022-10-23T17:06:29.889Z,3.40
2022-10-23T17:08:58.798Z,2.88
2022-10-23T17:11:28.509Z,3.10
2022-10-23T17:13:59.367Z,3.08
2022-10-23T17:16:29.494Z,2.60
2022-10-23T17:18:57.797Z,2.90
2022-10-23T17:21:27.286Z,3.25
2022-10-23T17:23:55.288Z,2.60
2022-10-23T17:26:23.525Z,3.50
2022-10-23T17:28:54.410Z,3.22
2022-10-23T17:31:23.916Z,2.97
2022-10-23T17:33:56.823Z,3.10
2022-10-23T17:36:26.766Z,3.50
2022-10-23T17:38:54.868Z,3.33
2022-10-23T17:41:24.501Z,3.50
2022-10-23T17:43:53.022Z,2.83
2022-10-23T17:46:20.983Z,3.10
2022-10-23T17:48:49.069Z,3.17
2022-10-23T17:51:20.164Z,3.00
2022-10-23T17:53:52.061Z,3.40
2022-10-23T17:56:22.849Z,3.60
2022-10-23T17:58:51.425Z,3.80
2022-10-23T18:01:21.220Z,3.50
2022-10-23T18:03:49.183Z,3.40
2022-10-23T18:06:19.878Z,3.90
2022-10-23T18:08:49.897Z,3.30
2022-10-23T18:11:19.640Z,4.18
2022-10-23T18:13:49.172Z,4.00
2022-10-23T18:16:20.685Z,4.20
2022-10-23T18:18:49.360Z,5.07
2022-10-23T18:21:17.739Z,10.45
2022-10-23T18:23:46.186Z,9.82
2022-10-23T18:26:17.716Z,6.63
2022-10-23T18:28:46.677Z,5.32
2022-10-23T18:31:16.061Z,5.40
2022-10-23T18:33:44.167Z,4.35
2022-10-23T18:36:17.153Z,4.45
2022-10-23T18:38:45.246Z,4.07
2022-10-23T18:41:13.270Z,3.63
2022-10-23T18:43:44.736Z,3.92
2022-10-23T18:46:13.050Z,4.00
2022-10-23T18:48:41.440Z,4.30
2022-10-23T18:51:15.831Z,4.00
2022-10-23T18:53:46.607Z,3.85
2022-10-23T18:56:15.442Z,3.53
2022-10-23T18:58:44.741Z,3.85
2022-10-23T19:01:12.876Z,3.90
2022-10-23T19:03:40.960Z,3.72
2022-10-23T19:06:09.497Z,4.00
2022-10-23T19:08:38.767Z,4.38
2022-10-23T19:11:07.933Z,3.60
2022-10-23T19:13:39.301Z,4.43
2022-10-23T19:16:13.816Z,3.88
2022-10-23T19:18:45.531Z,4.10
2022-10-23T19:21:14.250Z,3.58
2022-10-23T19:23:43.960Z,2.60
2022-10-23T19:26:13.797Z,2.00
2022-10-23T19:28:45.393Z,1.85
2022-10-23T19:31:15.135Z,1.90
2022-10-23T19:33:43.017Z,1.90
2022-10-23T19:36:14.302Z,1.90
2022-10-23T19:38:45.039Z,2.00
2022-10-23T19:41:12.945Z,1.80
2022-10-23T19:43:42.185Z,1.50
2022-10-23T19:46:12.330Z,1.60
2022-10-23T19:48:44.504Z,1.45
2022-10-23T19:51:13.461Z,1.60
2022-10-23T19:53:42.635Z,1.40
2022-10-23T19:56:12.376Z,1.60
2022-10-23T19:58:40.802Z,1.50
2022-10-23T20:01:10.905Z,1.58
2022-10-23T20:03:39.531Z,1.50
2022-10-23T20:06:11.331Z,1.65
2022-10-23T20:08:39.651Z,1.80
2022-10-23T20:11:08.502Z,1.70
2022-10-23T20:13:36.490Z,2.00
2022-10-23T20:16:04.592Z,2.10
2022-10-23T20:18:32.477Z,2.00
2022-10-23T20:21:02.653Z,2.50
2022-10-23T20:23:31.881Z,2.92
2022-10-23T20:26:05.574Z,2.00
2022-10-23T20:28:33.708Z,2.00
2022-10-23T20:31:03.226Z,2.10
2022-10-23T20:33:31.172Z,2.00
2022-10-23T20:35:59.150Z,1.80
2022-10-23T20:38:27.070Z,2.33
2022-10-23T20:41:00.326Z,2.30
2022-10-23T20:43:28.314Z,2.70
2022-10-23T20:45:56.218Z,2.60
2022-10-23T20:48:24.120Z,3.30
2022-10-23T20:50:52.078Z,3.30
2022-10-23T20:53:19.992Z,3.47
2022-10-23T20:55:47.935Z,3.30
2022-10-23T20:58:17.203Z,3.30
2022-10-23T21:00:45.173Z,3.20
2022-10-23T21:03:13.167Z,3.50
2022-10-23T21:05:41.149Z,2.90
2022-10-23T21:08:09.038Z,2.70
2022-10-23T21:10:36.977Z,3.10
2022-10-23T21:13:04.922Z,2.72
2022-10-23T21:15:34.218Z,2.90
2022-10-23T21:18:13.037Z,2.17
2022-10-23T21:20:50.049Z,2.03
2022-10-23T21:23:18.752Z,2.60
2022-10-23T21:28:15.569Z,2.08
2022-10-23T21:30:44.837Z,2.10
2022-10-23T21:33:14.192Z,1.70
2022-10-23T21:35:52.279Z,2.40
2022-10-23T21:38:26.666Z,1.75
2022-10-23T21:40:54.627Z,2.05
2022-10-23T21:43:22.552Z,1.70
2022-10-23T21:45:54.332Z,1.90
2022-10-23T21:48:23.377Z,1.80
2022-10-23T21:50:57.570Z,1.90
2022-10-23T21:53:25.556Z,1.50
2022-10-23T21:55:54.077Z,1.60
2022-10-23T21:58:22.061Z,1.52
2022-10-23T22:00:51.295Z,1.70
2022-10-23T22:03:19.245Z,1.70
2022-10-23T22:05:47.178Z,1.40
2022-10-23T22:08:15.091Z,1.50
2022-10-23T22:10:43.057Z,1.75
2022-10-23T22:13:10.973Z,1.70
2022-10-23T22:15:38.940Z,1.30
2022-10-23T22:18:08.229Z,1.47
2022-10-23T22:20:36.118Z,1.10
2022-10-23T22:23:04.125Z,1.30
2022-10-23T22:25:32.137Z,1.40
2022-10-23T22:28:00.171Z,1.10
2022-10-23T22:30:28.154Z,1.40
2022-10-23T22:32:56.058Z,1.40
2022-10-23T22:35:25.331Z,1.40
2022-10-23T22:37:53.211Z,1.80
2022-10-23T22:40:21.090Z,1.20
2022-10-23T22:42:48.949Z,1.80
2022-10-23T22:45:17.005Z,1.50
2022-10-23T22:47:44.994Z,1.80
2022-10-23T22:50:12.930Z,1.80
2022-10-23T22:52:42.558Z,1.50
2022-10-23T22:55:11.470Z,1.60
2022-10-23T22:57:39.388Z,1.60
2022-10-23T23:00:08.744Z,1.50
2022-10-23T23:02:36.663Z,1.80
2022-10-23T23:05:04.849Z,1.60
2022-10-23T23:07:32.755Z,1.60
2022-10-23T23:10:01.989Z,1.48
2022-10-23T23:12:29.997Z,1.45
2022-10-23T23:14:58.936Z,1.67
2022-10-23T23:17:26.895Z,1.50
2022-10-23T23:19:54.793Z,1.70
2022-10-23T23:22:22.705Z,1.75
2022-10-23T23:24:50.658Z,2.10
2022-10-23T23:27:19.901Z,1.80
2022-10-23T23:29:47.840Z,1.50
2022-10-23T23:32:15.733Z,1.50
2022-10-23T23:34:43.632Z,1.90
2022-10-23T23:37:11.518Z,2.00
2022-10-23T23:39:39.465Z,2.20
2022-10-23T23:42:07.353Z,1.77
2022-10-23T23:44:42.019Z,2.50
2022-10-23T23:47:18.277Z,1.92
2022-10-23T23:49:46.270Z,2.20
2022-10-23T23:52:14.197Z,2.50
2022-10-23T23:54:42.218Z,2.43
2022-10-23T23:57:11.552Z,2.40
2022-10-23T23:59:42.000Z,2.65
